createdAt,value
2019-06-08T00:01:35.091Z,96064.72
2019-06-08T00:04:05.843Z,96052.31
2019-06-08T00:06:36.291Z,96047.21
2019-06-08T00:09:07.711Z,96035.50
2019-06-08T00:11:38.176Z,96038.86
2019-06-08T00:14:08.550Z,96057.12
2019-06-08T00:16:39.303Z,96048.23
2019-06-08T00:19:13.886Z,96043.92
2019-06-08T00:21:48.923Z,96043.77
2019-06-08T00:24:24.158Z,96050.55
2019-06-08T00:26:54.944Z,96064.34
2019-06-08T00:29:25.428Z,96076.49
2019-06-08T00:31:57.081Z,96090.46
2019-06-08T00:34:29.041Z,96085.42
2019-06-08T00:36:59.576Z,96090.39
2019-06-08T00:39:29.972Z,96095.05
2019-06-08T00:42:00.413Z,96105.92
2019-06-08T00:44:31.305Z,96101.39
2019-06-08T00:47:01.904Z,96098.75
2019-06-08T00:49:32.324Z,96105.44
2019-06-08T00:52:02.781Z,96109.16
2019-06-08T00:54:33.241Z,96119.92
2019-06-08T00:57:08.024Z,96125.63
2019-06-08T00:59:44.938Z,96118.03
2019-06-08T01:02:15.476Z,96116.42
2019-06-08T01:04:46.670Z,96119.86
2019-06-08T01:07:17.914Z,96135.84
2019-06-08T01:09:48.564Z,96147.43
2019-06-08T01:12:22.600Z,96146.83
2019-06-08T01:14:53.107Z,96153.28
2019-06-08T01:17:25.057Z,96158.19
2019-06-08T01:19:55.612Z,96153.65
2019-06-08T01:22:27.612Z,96147.82
2019-06-08T01:24:58.377Z,96153.75
2019-06-08T01:27:30.150Z,96168.42
2019-06-08T01:30:03.229Z,96171.97
2019-06-08T01:32:59.856Z,96153.93
2019-06-08T01:35:30.926Z,96164.50
2019-06-08T01:38:01.519Z,96169.41
2019-06-08T01:40:34.617Z,96164.91
2019-06-08T01:43:05.085Z,96172.48
2019-06-08T01:45:35.682Z,96187.63
2019-06-08T01:48:19.839Z,96199.09
2019-06-08T01:50:42.549Z,96187.38
2019-06-08T01:53:20.736Z,96164.23
2019-06-08T01:55:55.067Z,96158.30
2019-06-08T01:58:29.406Z,96153.25
2019-06-08T02:01:06.138Z,96159.70
2019-06-08T02:03:36.553Z,96143.22
2019-06-08T02:06:06.976Z,96141.33
2019-06-08T02:08:37.371Z,96143.84
2019-06-08T02:11:07.817Z,96150.61
2019-06-08T02:13:38.646Z,96153.10
2019-06-08T02:16:10.342Z,96143.44
2019-06-08T02:18:50.077Z,96148.86
2019-06-08T02:21:13.084Z,96139.73
2019-06-08T02:23:43.455Z,96129.08
2019-06-08T02:26:16.303Z,96128.08
2019-06-08T02:28:47.089Z,96128.13
2019-06-08T02:31:17.573Z,96130.59
2019-06-08T02:33:47.957Z,96136.09
2019-06-08T02:36:18.398Z,96141.75
2019-06-08T02:38:48.831Z,96149.87
2019-06-08T02:41:19.602Z,96147.47
2019-06-08T02:43:50.108Z,96151.55
2019-06-08T02:46:20.648Z,96147.80
2019-06-08T02:49:03.301Z,96140.28
2019-06-08T02:51:26.037Z,96146.45
2019-06-08T02:53:56.439Z,96141.03
2019-06-08T02:56:27.263Z,96131.13
2019-06-08T02:58:59.978Z,96141.61
2019-06-08T03:01:31.393Z,96139.68
2019-06-08T03:04:02.010Z,96148.02
2019-06-08T03:06:34.243Z,96154.98
2019-06-08T03:09:09.809Z,96153.02
2019-06-08T03:11:41.307Z,96161.63
2019-06-08T03:14:11.962Z,96149.80
2019-06-08T03:16:43.528Z,96153.56
2019-06-08T03:19:21.823Z,96160.55
2019-06-08T03:21:46.216Z,96173.95
2019-06-08T03:24:19.842Z,96180.14
2019-06-08T03:26:50.295Z,96191.98
2019-06-08T03:29:20.789Z,96212.89
2019-06-08T03:31:56.838Z,96220.96
2019-06-08T03:34:26.689Z,96227.95
2019-06-08T03:36:58.496Z,96229.04
2019-06-08T03:39:29.623Z,96234.39
2019-06-08T03:42:00.068Z,96233.01
2019-06-08T03:44:30.832Z,96226.81
2019-06-08T03:47:01.613Z,96246.99
2019-06-08T03:49:43.126Z,96262.33
2019-06-08T03:52:04.129Z,96253.77
2019-06-08T03:54:36.151Z,96255.39
2019-06-08T03:57:06.818Z,96256.18
2019-06-08T03:59:38.551Z,96258.89
2019-06-08T04:02:09.580Z,96245.42
2019-06-08T04:04:41.843Z,96252.65
2019-06-08T04:07:15.678Z,96258.56
2019-06-08T04:09:46.183Z,96262.05
2019-06-08T04:12:17.082Z,96286.01
2019-06-08T04:14:47.520Z,96277.93
2019-06-08T04:17:17.902Z,96280.83
2019-06-08T04:20:08.720Z,96278.13
2019-06-08T04:22:20.978Z,96281.91
2019-06-08T04:24:51.592Z,96292.39
2019-06-08T04:27:22.037Z,96295.63
2019-06-08T04:29:52.686Z,96287.81
2019-06-08T04:32:23.484Z,96294.50
2019-06-08T04:34:53.972Z,96294.50
2019-06-08T04:37:24.412Z,96293.67
2019-06-08T04:39:54.882Z,96301.70
2019-06-08T04:42:26.372Z,96314.28
2019-06-08T04:44:56.849Z,96309.69
2019-06-08T04:47:28.147Z,96306.73
2019-06-08T04:49:58.643Z,96316.17
2019-06-08T04:52:32.090Z,96325.31
2019-06-08T04:55:03.505Z,96337.21
2019-06-08T04:57:33.925Z,96348.56
2019-06-08T05:00:12.336Z,96357.98
2019-06-08T05:02:42.178Z,96356.59
2019-06-08T05:05:11.338Z,96363.86
2019-06-08T05:07:45.933Z,96355.78
2019-06-08T05:10:23.389Z,96366.55
2019-06-08T05:12:56.878Z,96368.44
2019-06-08T05:15:27.345Z,96363.33
2019-06-08T05:17:58.075Z,96375.45
2019-06-08T05:20:38.478Z,96378.66
2019-06-08T05:23:02.743Z,96368.65
2019-06-08T05:25:36.327Z,96369.73
2019-06-08T05:28:13.162Z,96365.20
2019-06-08T05:30:43.721Z,96372.69
2019-06-08T05:33:15.302Z,96379.15
2019-06-08T05:35:53.194Z,96384.81
2019-06-08T05:38:26.825Z,96388.30
2019-06-08T05:40:57.334Z,96389.39
2019-06-08T05:43:29.622Z,96389.66
2019-06-08T05:46:04.935Z,96395.85
2019-06-08T05:48:39.707Z,96396.70
2019-06-08T05:51:10.762Z,96404.51
2019-06-08T05:53:41.663Z,96409.36
2019-06-08T05:56:12.719Z,96400.52
2019-06-08T05:58:43.942Z,96385.19
2019-06-08T06:01:15.652Z,96414.79
2019-06-08T06:03:51.485Z,96419.91
2019-06-08T06:06:21.613Z,96430.39
2019-06-08T06:08:52.802Z,96439.82
2019-06-08T06:11:23.630Z,96442.23
2019-06-08T06:13:57.188Z,96460.50
2019-06-08T06:16:27.639Z,96462.39
2019-06-08T06:18:58.081Z,96464.80
2019-06-08T06:21:28.774Z,96464.50
2019-06-08T06:24:01.080Z,96458.30
2019-06-08T06:26:37.727Z,96451.08
2019-06-08T06:29:08.377Z,96441.13
2019-06-08T06:31:41.628Z,96455.13
2019-06-08T06:34:12.332Z,96452.73
2019-06-08T06:36:43.857Z,96453.00
2019-06-08T06:39:14.528Z,96453.23
2019-06-08T06:41:45.957Z,96450.27
2019-06-08T06:44:16.444Z,96443.50
2019-06-08T06:46:47.991Z,96448.56
2019-06-08T06:49:18.627Z,96447.20
2019-06-08T06:51:50.538Z,96448.85
2019-06-08T06:54:21.013Z,96455.26
2019-06-08T06:56:51.902Z,96446.59
2019-06-08T06:59:22.974Z,96442.97
2019-06-08T07:01:57.273Z,96441.00
2019-06-08T07:04:25.625Z,96457.50
2019-06-08T07:06:56.833Z,96460.47
2019-06-08T07:09:27.280Z,96466.72
2019-06-08T07:11:57.855Z,96471.71
2019-06-08T07:14:28.368Z,96483.58
2019-06-08T07:16:59.130Z,96479.46
2019-06-08T07:19:30.718Z,96476.28
2019-06-08T07:22:01.960Z,96487.36
2019-06-08T07:24:33.497Z,96488.20
2019-06-08T07:27:16.087Z,96475.09
2019-06-08T07:29:47.225Z,96482.58
2019-06-08T07:32:18.174Z,96482.97
2019-06-08T07:34:50.426Z,96495.13
2019-06-08T07:37:21.178Z,96489.34
2019-06-08T07:39:51.731Z,96495.55
2019-06-08T07:42:25.152Z,96492.75
2019-06-08T07:44:55.930Z,96496.58
2019-06-08T07:47:27.079Z,96494.79
2019-06-08T07:49:57.562Z,96498.14
2019-06-08T07:52:28.228Z,96511.11
2019-06-08T07:54:58.843Z,96519.46
2019-06-08T07:57:29.297Z,96520.02
2019-06-08T08:00:00.148Z,96521.42
2019-06-08T08:02:32.571Z,96521.36
2019-06-08T08:05:07.169Z,96520.27
2019-06-08T08:07:37.594Z,96513.80
2019-06-08T08:10:08.340Z,96529.45
2019-06-08T08:12:39.414Z,96524.83
2019-06-08T08:15:09.905Z,96519.74
2019-06-08T08:17:40.363Z,96520.55
2019-06-08T08:20:10.911Z,96512.55
2019-06-08T08:22:42.978Z,96522.03
2019-06-08T08:25:14.292Z,96521.59
2019-06-08T08:27:47.866Z,96517.83
2019-06-08T08:30:21.190Z,96517.62
2019-06-08T08:32:53.284Z,96524.90
2019-06-08T08:35:24.018Z,96528.34
2019-06-08T08:37:57.031Z,96533.92
2019-06-08T08:40:30.285Z,96530.27
2019-06-08T08:43:01.633Z,96531.45
2019-06-08T08:45:33.703Z,96526.96
2019-06-08T08:48:20.661Z,96517.95
2019-06-08T08:50:38.306Z,96516.34
2019-06-08T08:53:24.091Z,96523.31
2019-06-08T08:56:02.072Z,96522.61
2019-06-08T08:58:31.184Z,96522.19
2019-06-08T09:01:07.968Z,96514.69
2019-06-08T09:03:39.591Z,96518.83
2019-06-08T09:06:11.473Z,96519.68
2019-06-08T09:08:42.368Z,96534.23
2019-06-08T09:11:17.572Z,96537.27
2019-06-08T09:14:01.395Z,96532.71
2019-06-08T09:16:38.418Z,96530.81
2019-06-08T09:19:08.827Z,96536.71
2019-06-08T09:21:39.549Z,96536.55
2019-06-08T09:24:10.110Z,96548.55
2019-06-08T09:26:47.900Z,96542.08
2019-06-08T09:29:19.042Z,96541.73
2019-06-08T09:31:52.208Z,96539.81
2019-06-08T09:34:22.696Z,96536.28
2019-06-08T09:40:09.112Z,96544.91
2019-06-08T09:42:41.062Z,96562.27
2019-06-08T09:45:29.109Z,96557.75
2019-06-08T09:48:01.799Z,96565.48
2019-06-08T09:50:32.013Z,96560.25
2019-06-08T09:53:21.771Z,96555.73
2019-06-08T09:55:41.186Z,96546.72
2019-06-08T09:58:11.700Z,96555.15
2019-06-08T10:00:41.202Z,96564.39
2019-06-08T10:03:13.507Z,96558.65
2019-06-08T10:05:48.423Z,96563.03
2019-06-08T10:08:20.607Z,96571.69
2019-06-08T10:11:05.954Z,96561.97
2019-06-08T10:13:42.963Z,96564.89
2019-06-08T10:16:11.680Z,96576.20
2019-06-08T10:18:51.147Z,96579.16
2019-06-08T10:21:23.433Z,96565.22
2019-06-08T10:24:09.274Z,96560.08
2019-06-08T10:26:33.343Z,96568.95
2019-06-08T10:29:09.059Z,96563.84
2019-06-08T10:31:48.324Z,96560.33
2019-06-08T10:34:19.175Z,96571.23
2019-06-08T10:37:03.351Z,96557.64
2019-06-08T10:39:32.341Z,96554.08
2019-06-08T10:42:09.389Z,96579.75
2019-06-08T10:44:38.442Z,96575.28
2019-06-08T10:47:12.161Z,96563.97
2019-06-08T10:49:42.812Z,96559.41
2019-06-08T10:52:13.183Z,96563.55
2019-06-08T10:54:45.202Z,96564.55
2019-06-08T10:57:18.244Z,96587.37
2019-06-08T10:59:48.796Z,96591.46
2019-06-08T11:02:22.028Z,96576.89
2019-06-08T11:04:52.457Z,96590.66
2019-06-08T11:07:23.142Z,96584.94
2019-06-08T11:10:11.674Z,96595.13
2019-06-08T11:12:39.064Z,96584.58
2019-06-08T11:15:11.660Z,96590.42
2019-06-08T11:17:42.352Z,96587.19
2019-06-08T11:20:13.802Z,96577.46
2019-06-08T11:22:49.773Z,96586.13
2019-06-08T11:25:20.217Z,96585.55
2019-06-08T11:27:54.705Z,96583.33
2019-06-08T11:30:30.422Z,96585.08
2019-06-08T11:33:12.415Z,96590.61
2019-06-08T11:35:58.166Z,96587.05
2019-06-08T11:38:28.977Z,96578.13
2019-06-08T11:41:04.621Z,96599.00
2019-06-08T11:43:43.883Z,96582.91
2019-06-08T11:46:21.472Z,96589.19
2019-06-08T11:48:51.313Z,96598.84
2019-06-08T11:54:32.806Z,96603.08
2019-06-08T11:56:53.744Z,96592.34
2019-06-08T11:59:31.771Z,96619.20
2019-06-08T12:02:03.458Z,96616.87
2019-06-08T12:04:38.442Z,96611.48
2019-06-08T12:07:25.227Z,96613.17
2019-06-08T12:09:58.323Z,96617.14
2019-06-08T12:12:28.297Z,96611.66
2019-06-08T12:14:58.789Z,96633.94
2019-06-08T12:17:29.274Z,96614.16
2019-06-08T12:20:14.035Z,96628.42
2019-06-08T12:22:41.207Z,96614.39
2019-06-08T12:25:33.035Z,96600.11
2019-06-08T12:28:04.576Z,96613.84
2019-06-08T12:30:35.103Z,96601.72
2019-06-08T12:33:09.403Z,96615.73
2019-06-08T12:35:39.786Z,96616.81
2019-06-08T12:38:12.391Z,96614.93
2019-06-08T12:40:42.483Z,96611.96
2019-06-08T12:43:23.862Z,96616.11
2019-06-08T12:45:54.309Z,96602.84
2019-06-08T12:48:28.724Z,96601.64
2019-06-08T12:50:59.381Z,96606.49
2019-06-08T12:53:29.804Z,96602.16
2019-06-08T12:56:00.659Z,96612.61
2019-06-08T12:58:31.122Z,96615.73
2019-06-08T13:01:04.675Z,96613.60
2019-06-08T13:03:38.259Z,96601.48
2019-06-08T13:06:09.618Z,96628.55
2019-06-08T13:08:59.853Z,96622.28
2019-06-08T13:11:30.362Z,96612.30
2019-06-08T13:14:02.181Z,96611.48
2019-06-08T13:16:33.020Z,96603.83
2019-06-08T13:19:03.678Z,96617.77
2019-06-08T13:21:35.697Z,96609.98
2019-06-08T13:24:08.363Z,96595.17
2019-06-08T13:26:39.537Z,96612.17
2019-06-08T13:29:22.194Z,96599.66
2019-06-08T13:31:54.324Z,96606.05
2019-06-08T13:34:24.942Z,96614.63
2019-06-08T13:36:55.585Z,96607.17
2019-06-08T13:39:38.763Z,96606.84
2019-06-08T13:42:13.200Z,96618.71
2019-06-08T13:44:47.529Z,96618.36
2019-06-08T13:47:40.947Z,96616.23
2019-06-08T13:50:13.030Z,96624.97
2019-06-08T13:52:44.129Z,96622.98
2019-06-08T13:55:38.778Z,96629.92
2019-06-08T13:57:51.209Z,96629.23
2019-06-08T14:00:32.960Z,96624.00
2019-06-08T14:03:03.767Z,96622.34
2019-06-08T14:05:34.213Z,96621.68
2019-06-08T14:08:10.982Z,96618.47
2019-06-08T14:10:43.909Z,96619.16
2019-06-08T14:13:15.103Z,96625.32
2019-06-08T14:16:03.892Z,96622.69
2019-06-08T14:18:34.482Z,96610.31
2019-06-08T14:21:05.157Z,96623.66
2019-06-08T14:23:35.767Z,96618.72
2019-06-08T14:26:08.186Z,96611.98
2019-06-08T14:28:39.044Z,96618.22
2019-06-08T14:31:10.918Z,96618.70
2019-06-08T14:33:41.835Z,96631.03
2019-06-08T14:36:12.287Z,96622.88
2019-06-08T14:38:45.793Z,96626.55
2019-06-08T14:41:29.814Z,96625.86
2019-06-08T14:44:01.072Z,96623.55
2019-06-08T14:46:31.490Z,96628.02
2019-06-08T14:49:03.351Z,96636.55
2019-06-08T14:51:52.548Z,96625.00
2019-06-08T14:54:26.640Z,96615.92
2019-06-08T14:57:03.092Z,96628.55
2019-06-08T14:59:35.591Z,96622.98
2019-06-08T15:02:19.346Z,96631.66
2019-06-08T15:04:57.224Z,96628.12
2019-06-08T15:07:32.640Z,96629.97
2019-06-08T15:10:11.886Z,96626.18
2019-06-08T15:12:57.741Z,96623.17
2019-06-08T15:15:30.731Z,96619.88
2019-06-08T15:18:04.897Z,96626.34
2019-06-08T15:20:34.102Z,96629.38
2019-06-08T15:23:04.894Z,96624.24
2019-06-08T15:25:35.590Z,96629.41
2019-06-08T15:28:14.692Z,96624.28
2019-06-08T15:30:45.206Z,96620.84
2019-06-08T15:33:18.188Z,96627.23
2019-06-08T15:35:48.866Z,96621.56
2019-06-08T15:38:25.349Z,96617.54
2019-06-08T15:41:07.913Z,96616.86
2019-06-08T15:43:42.580Z,96627.15
2019-06-08T15:46:26.379Z,96628.15
2019-06-08T15:49:08.475Z,96619.44
2019-06-08T15:51:48.095Z,96627.34
2019-06-08T15:57:38.086Z,96618.81
2019-06-08T16:00:10.175Z,96625.61
2019-06-08T16:02:45.825Z,96619.45
2019-06-08T16:05:30.261Z,96618.36
2019-06-08T16:11:20.940Z,96626.20
2019-06-08T16:13:59.104Z,96612.52
2019-06-08T16:16:31.134Z,96608.58
2019-06-08T16:19:10.805Z,96612.12
2019-06-08T16:21:59.282Z,96604.56
2019-06-08T16:24:31.860Z,96607.61
2019-06-08T16:27:11.334Z,96621.29
2019-06-08T16:29:41.969Z,96614.91
2019-06-08T16:32:16.047Z,96616.38
2019-06-08T16:34:46.641Z,96606.09
2019-06-08T16:40:17.682Z,96615.34
2019-06-08T16:42:50.983Z,96616.61
2019-06-08T16:45:21.446Z,96624.61
2019-06-08T16:47:53.124Z,96616.84
2019-06-08T16:50:28.051Z,96624.25
2019-06-08T16:52:59.272Z,96625.73
2019-06-08T16:55:29.773Z,96619.85
2019-06-08T16:58:00.269Z,96617.92
2019-06-08T17:00:37.141Z,96617.63
2019-06-08T17:03:07.198Z,96625.17
2019-06-08T17:05:38.537Z,96616.05
2019-06-08T17:08:09.217Z,96619.63
2019-06-08T17:10:42.180Z,96620.37
2019-06-08T17:13:14.328Z,96621.41
2019-06-08T17:15:53.044Z,96626.16
2019-06-08T17:18:23.896Z,96627.68
2019-06-08T17:20:54.741Z,96627.44
2019-06-08T17:23:25.263Z,96628.72
2019-06-08T17:26:07.148Z,96632.59
2019-06-08T17:28:45.082Z,96625.13
2019-06-08T17:31:15.524Z,96629.86
2019-06-08T17:34:01.532Z,96641.23
2019-06-08T17:36:37.110Z,96643.66
2019-06-08T17:39:08.122Z,96644.29
2019-06-08T17:41:40.242Z,96643.80
2019-06-08T17:44:10.838Z,96648.24
2019-06-08T17:46:44.551Z,96647.75
2019-06-08T17:49:18.171Z,96649.38
2019-06-08T17:51:50.024Z,96650.98
2019-06-08T17:54:20.483Z,96652.81
2019-06-08T17:56:51.193Z,96655.87
2019-06-08T17:59:23.567Z,96659.34
2019-06-08T18:01:54.375Z,96659.33
2019-06-08T18:04:25.202Z,96661.08
2019-06-08T18:07:03.774Z,96656.27
2019-06-08T18:09:45.173Z,96658.91
2019-06-08T18:12:18.270Z,96658.56
2019-06-08T18:14:54.350Z,96660.39
2019-06-08T18:17:27.851Z,96661.98
2019-06-08T18:20:11.759Z,96661.94
2019-06-08T18:22:49.384Z,96660.88
2019-06-08T18:25:17.582Z,96666.05
2019-06-08T18:30:45.107Z,96671.69
2019-06-08T18:33:18.079Z,96670.84
2019-06-08T18:35:49.429Z,96674.75
2019-06-08T18:38:27.273Z,96677.59
2019-06-08T18:40:58.649Z,96682.13
2019-06-08T18:43:35.432Z,96680.44
2019-06-08T18:46:07.069Z,96684.07
2019-06-08T18:48:42.166Z,96689.59
2019-06-08T18:51:17.568Z,96692.22
2019-06-08T18:54:06.736Z,96693.47
2019-06-08T18:56:22.718Z,96699.25
2019-06-08T18:58:58.180Z,96700.22
2019-06-08T19:01:32.779Z,96705.19
2019-06-08T19:04:04.733Z,96713.70
2019-06-08T19:06:48.751Z,96713.28
2019-06-08T19:09:19.307Z,96716.85
2019-06-08T19:11:57.523Z,96715.33
2019-06-08T19:14:31.095Z,96715.39
2019-06-08T19:17:02.103Z,96721.64
2019-06-08T19:19:38.511Z,96728.42
2019-06-08T19:22:12.345Z,96728.70
2019-06-08T19:25:02.104Z,96735.97
2019-06-08T19:27:45.891Z,96734.89
2019-06-08T19:30:29.425Z,96739.52
2019-06-08T19:32:59.956Z,96741.97
2019-06-08T19:35:53.745Z,96743.59
2019-06-08T19:38:24.801Z,96746.83
2019-06-08T19:40:57.261Z,96747.69
2019-06-08T19:43:32.043Z,96747.17
2019-06-08T19:46:04.008Z,96746.94
2019-06-08T19:48:42.791Z,96751.50
2019-06-08T19:51:13.066Z,96759.59
2019-06-08T19:53:49.271Z,96763.06
2019-06-08T19:56:21.385Z,96766.56
2019-06-08T19:59:00.912Z,96769.75
2019-06-08T20:01:24.200Z,96773.45
2019-06-08T20:03:55.004Z,96776.13
2019-06-08T20:06:37.965Z,96783.86
2019-06-08T20:09:08.355Z,96781.66
2019-06-08T20:11:55.531Z,96787.20
2019-06-08T20:14:28.724Z,96778.56
2019-06-08T20:17:11.724Z,96779.59
2019-06-08T20:19:44.813Z,96784.87
2019-06-08T20:22:19.444Z,96787.24
2019-06-08T20:24:55.287Z,96784.26
2019-06-08T20:27:29.244Z,96791.45
2019-06-08T20:30:08.064Z,96788.41
2019-06-08T20:32:37.849Z,96789.14
2019-06-08T20:35:11.901Z,96782.94
2019-06-08T20:37:43.569Z,96786.63
2019-06-08T20:40:29.607Z,96791.65
2019-06-08T20:43:00.286Z,96787.53
2019-06-08T20:45:30.710Z,96782.63
2019-06-08T20:48:01.159Z,96789.23
2019-06-08T20:50:32.012Z,96788.88
2019-06-08T20:53:08.142Z,96792.59
2019-06-08T20:55:43.065Z,96794.95
2019-06-08T20:58:30.405Z,96790.33
2019-06-08T21:01:01.359Z,96794.52
2019-06-08T21:03:43.576Z,96793.67
2019-06-08T21:06:17.138Z,96801.91
2019-06-08T21:08:53.272Z,96799.64
2019-06-08T21:11:27.143Z,96800.13
2019-06-08T21:14:05.932Z,96803.53
2019-06-08T21:16:44.671Z,96803.16
2019-06-08T21:19:24.222Z,96800.67
2019-06-08T21:21:56.033Z,96807.70
2019-06-08T21:24:30.258Z,96804.34
2019-06-08T21:27:03.023Z,96802.43
2019-06-08T21:29:47.723Z,96800.48
2019-06-08T21:32:13.247Z,96808.95
2019-06-08T21:34:50.858Z,96811.53
2019-06-08T21:37:28.193Z,96809.88
2019-06-08T21:40:03.600Z,96813.78
2019-06-08T21:42:37.395Z,96824.68
2019-06-08T21:45:29.910Z,96820.03
2019-06-08T21:48:03.895Z,96823.77
2019-06-08T21:50:48.960Z,96823.91
2019-06-08T21:53:32.902Z,96821.23
2019-06-08T21:56:20.473Z,96820.36
2019-06-08T21:58:53.166Z,96825.66
2019-06-08T22:01:28.428Z,96828.33
2019-06-08T22:04:02.634Z,96821.89
2019-06-08T22:06:37.300Z,96829.57
2019-06-08T22:09:11.159Z,96825.75
2019-06-08T22:11:43.620Z,96828.36
2019-06-08T22:14:27.211Z,96828.31
2019-06-08T22:17:00.127Z,96827.95
2019-06-08T22:19:33.045Z,96828.42
2019-06-08T22:22:08.177Z,96831.32
2019-06-08T22:24:42.160Z,96833.42
2019-06-08T22:27:12.673Z,96833.37
2019-06-08T22:29:48.325Z,96837.86
2019-06-08T22:32:18.195Z,96835.45
2019-06-08T22:35:11.730Z,96835.89
2019-06-08T22:37:45.160Z,96833.92
2019-06-08T22:40:17.557Z,96847.98
2019-06-08T22:42:52.832Z,96840.92
2019-06-08T22:45:29.077Z,96845.47
2019-06-08T22:48:01.824Z,96848.61
2019-06-08T22:50:47.660Z,96849.19
2019-06-08T22:53:19.128Z,96849.36
2019-06-08T22:55:50.055Z,96845.93
2019-06-08T22:58:23.822Z,96849.58
2019-06-08T23:00:57.041Z,96849.46
2019-06-08T23:03:26.394Z,96847.98
2019-06-08T23:06:05.621Z,96854.44
2019-06-08T23:08:43.197Z,96854.88
2019-06-08T23:11:14.976Z,96857.95
2019-06-08T23:13:49.097Z,96863.51
2019-06-08T23:16:21.579Z,96864.50
2019-06-08T23:18:57.271Z,96860.14
2019-06-08T23:21:27.558Z,96866.82
2019-06-08T23:23:59.865Z,96878.03
2019-06-08T23:26:34.232Z,96868.39
2019-06-08T23:29:09.694Z,96869.69
2019-06-08T23:34:32.320Z,96872.73
2019-06-08T23:37:06.593Z,96870.06
2019-06-08T23:39:38.982Z,96871.92
2019-06-08T23:42:09.962Z,96872.91
2019-06-08T23:44:41.576Z,96875.00
2019-06-08T23:47:12.105Z,96874.13
2019-06-08T23:49:47.477Z,96866.30
2019-06-08T23:52:20.908Z,96876.01
2019-06-08T23:54:52.823Z,96870.66
2019-06-08T23:57:29.594Z,96872.27
